createdAt,value
2019-02-11T00:01:15.439Z,5.05
2019-02-11T00:03:44.521Z,5.08
2019-02-11T00:06:13.449Z,5.07
2019-02-11T00:08:42.425Z,5.09
2019-02-11T00:11:11.456Z,5.12
2019-02-11T00:13:40.832Z,5.14
2019-02-11T00:16:09.866Z,5.16
2019-02-11T00:18:39.208Z,5.22
2019-02-11T00:21:08.215Z,5.17
2019-02-11T00:23:37.307Z,5.22
2019-02-11T00:26:06.615Z,5.21
2019-02-11T00:28:35.620Z,5.27
2019-02-11T00:31:04.657Z,5.26
2019-02-11T00:33:33.591Z,5.26
2019-02-11T00:36:02.591Z,5.18
2019-02-11T00:38:31.987Z,5.20
2019-02-11T00:41:01.015Z,5.17
2019-02-11T00:43:30.490Z,5.19
2019-02-11T00:45:59.460Z,5.16
2019-02-11T00:48:28.495Z,5.17
2019-02-11T00:50:57.495Z,5.22
2019-02-11T00:53:26.583Z,5.24
2019-02-11T00:55:55.622Z,5.25
2019-02-11T00:58:24.623Z,5.31
2019-02-11T01:00:53.664Z,5.31
2019-02-11T01:03:22.635Z,5.32
2019-02-11T01:05:51.693Z,5.36
2019-02-11T01:08:20.701Z,5.37
2019-02-11T01:10:49.754Z,5.38
2019-02-11T01:13:27.238Z,5.46
2019-02-11T01:15:50.139Z,5.45
2019-02-11T01:18:19.190Z,5.48
2019-02-11T01:20:48.266Z,5.51
2019-02-11T01:23:17.249Z,5.51
2019-02-11T01:25:46.257Z,5.56
2019-02-11T01:28:15.226Z,5.56
2019-02-11T01:30:44.282Z,5.58
2019-02-11T01:33:13.338Z,5.54
2019-02-11T01:35:42.393Z,5.59
2019-02-11T01:38:11.452Z,5.60
2019-02-11T01:40:40.759Z,5.62
2019-02-11T01:43:09.817Z,5.66
2019-02-11T01:45:38.872Z,5.66
2019-02-11T01:48:08.217Z,5.73
2019-02-11T01:50:37.145Z,5.71
2019-02-11T01:53:06.215Z,5.74
2019-02-11T01:55:35.317Z,5.77
2019-02-11T01:58:04.194Z,5.79
2019-02-11T02:00:33.243Z,5.83
2019-02-11T02:03:02.483Z,5.85
2019-02-11T02:05:32.964Z,5.86
2019-02-11T02:08:02.324Z,5.85
2019-02-11T02:10:31.357Z,5.88
2019-02-11T02:13:00.417Z,5.84
2019-02-11T02:15:29.410Z,5.93
2019-02-11T02:17:58.419Z,5.95
2019-02-11T02:20:27.404Z,5.93
2019-02-11T02:22:56.411Z,5.94
2019-02-11T02:25:25.424Z,5.94
2019-02-11T02:27:54.470Z,5.86
2019-02-11T02:30:23.529Z,5.81
2019-02-11T02:32:52.505Z,5.75
2019-02-11T02:35:21.511Z,5.72
2019-02-11T02:37:50.517Z,5.76
2019-02-11T02:40:19.575Z,5.74
2019-02-11T02:42:48.846Z,5.76
2019-02-11T02:45:17.865Z,5.75
2019-02-11T02:47:47.227Z,5.79
2019-02-11T02:50:16.232Z,5.78
2019-02-11T02:52:45.163Z,5.80
2019-02-11T02:55:14.218Z,5.81
2019-02-11T02:57:43.225Z,5.81
2019-02-11T03:00:12.395Z,5.79
2019-02-11T03:02:41.374Z,5.80
2019-02-11T03:05:10.398Z,5.77
2019-02-11T03:07:39.402Z,5.76
2019-02-11T03:10:08.691Z,5.78
2019-02-11T03:12:37.721Z,5.75
2019-02-11T03:15:07.618Z,5.73
2019-02-11T03:17:36.637Z,5.71
2019-02-11T03:20:06.420Z,5.75
2019-02-11T03:22:35.433Z,5.78
2019-02-11T03:25:04.787Z,5.75
2019-02-11T03:27:34.193Z,5.75
2019-02-11T03:30:03.202Z,5.71
2019-02-11T03:32:32.218Z,5.75
2019-02-11T03:35:01.193Z,5.76
2019-02-11T03:37:30.496Z,5.73
2019-02-11T03:39:59.541Z,5.74
2019-02-11T03:42:28.591Z,5.73
2019-02-11T03:44:57.635Z,5.77
2019-02-11T03:47:26.645Z,5.72
2019-02-11T03:49:55.708Z,5.67
2019-02-11T03:52:25.024Z,5.62
2019-02-11T03:54:54.130Z,5.62
2019-02-11T03:57:23.123Z,5.60
2019-02-11T03:59:52.400Z,5.59
2019-02-11T04:02:21.446Z,5.58
2019-02-11T04:04:50.458Z,5.62
2019-02-11T04:07:19.504Z,5.58
2019-02-11T04:09:48.511Z,5.54
2019-02-11T04:12:17.558Z,5.53
2019-02-11T04:14:46.620Z,5.45
2019-02-11T04:17:15.623Z,5.40
2019-02-11T04:19:44.627Z,5.41
2019-02-11T04:22:13.691Z,5.46
2019-02-11T04:24:43.002Z,5.52
2019-02-11T04:27:11.987Z,5.51
2019-02-11T04:29:41.017Z,5.47
2019-02-11T04:32:10.104Z,5.50
2019-02-11T04:34:39.125Z,5.48
2019-02-11T04:37:08.409Z,5.48
2019-02-11T04:39:37.446Z,5.45
2019-02-11T04:42:06.450Z,5.49
2019-02-11T04:44:35.715Z,5.51
2019-02-11T04:47:04.778Z,5.46
2019-02-11T04:49:33.806Z,5.46
2019-02-11T04:52:03.174Z,5.46
2019-02-11T04:54:32.611Z,5.51
2019-02-11T04:57:01.835Z,5.42
2019-02-11T04:59:30.848Z,5.43
2019-02-11T05:01:59.924Z,5.49
2019-02-11T05:04:28.939Z,5.47
2019-02-11T05:06:57.960Z,5.43
2019-02-11T05:09:27.011Z,5.41
2019-02-11T05:11:56.039Z,5.43
2019-02-11T05:14:25.091Z,5.43
2019-02-11T05:16:54.107Z,5.45
2019-02-11T05:19:23.146Z,5.42
2019-02-11T05:21:52.164Z,5.49
2019-02-11T05:24:21.114Z,5.41
2019-02-11T05:26:50.029Z,5.44
2019-02-11T05:29:19.418Z,5.41
2019-02-11T05:31:48.804Z,5.40
2019-02-11T05:34:17.854Z,5.36
2019-02-11T05:36:46.865Z,5.38
2019-02-11T05:39:15.927Z,5.36
2019-02-11T05:41:44.956Z,5.36
2019-02-11T05:44:14.028Z,5.34
2019-02-11T05:46:42.966Z,5.35
2019-02-11T05:49:12.079Z,5.38
2019-02-11T05:51:41.098Z,5.36
2019-02-11T05:54:10.107Z,5.34
2019-02-11T05:56:39.175Z,5.31
2019-02-11T05:59:08.143Z,5.30
2019-02-11T06:01:37.190Z,5.25
2019-02-11T06:04:06.215Z,5.19
2019-02-11T06:06:35.254Z,5.18
2019-02-11T06:09:05.445Z,5.18
2019-02-11T06:11:34.497Z,5.21
2019-02-11T06:14:03.574Z,5.20
2019-02-11T06:16:32.589Z,5.23
2019-02-11T06:19:01.610Z,5.22
2019-02-11T06:21:30.953Z,5.24
2019-02-11T06:24:00.056Z,5.26
2019-02-11T06:26:29.072Z,5.29
2019-02-11T06:28:58.082Z,5.21
2019-02-11T06:31:27.097Z,5.28
2019-02-11T06:33:56.117Z,5.26
2019-02-11T06:36:25.099Z,5.25
2019-02-11T06:38:53.963Z,5.26
2019-02-11T06:41:23.232Z,5.18
2019-02-11T06:43:52.287Z,5.26
2019-02-11T06:46:21.341Z,5.23
2019-02-11T06:48:50.415Z,5.22
2019-02-11T06:51:19.657Z,5.22
2019-02-11T06:53:48.675Z,5.22
2019-02-11T06:56:17.742Z,5.23
2019-02-11T06:58:46.762Z,5.23
2019-02-11T07:01:15.828Z,5.22
2019-02-11T07:03:44.849Z,5.14
2019-02-11T07:06:13.873Z,5.05
2019-02-11T07:08:42.849Z,5.03
2019-02-11T07:11:11.878Z,4.94
2019-02-11T07:13:40.829Z,4.93
2019-02-11T07:16:09.868Z,4.95
2019-02-11T07:18:38.910Z,4.97
2019-02-11T07:21:07.966Z,4.95
2019-02-11T07:23:36.947Z,4.96
2019-02-11T07:26:06.012Z,4.98
2019-02-11T07:28:34.986Z,5.03
2019-02-11T07:31:04.123Z,5.04
2019-02-11T07:33:34.165Z,5.04
2019-02-11T07:36:03.114Z,5.06
2019-02-11T07:38:32.508Z,5.07
2019-02-11T07:41:01.624Z,5.10
2019-02-11T07:43:37.874Z,5.10
2019-02-11T07:46:15.194Z,5.11
2019-02-11T07:48:44.234Z,5.12
2019-02-11T07:51:13.289Z,5.16
2019-02-11T07:53:42.296Z,5.15
2019-02-11T07:56:11.366Z,5.17
2019-02-11T07:58:40.746Z,5.17
2019-02-11T08:01:09.800Z,5.16
2019-02-11T08:03:38.717Z,5.14
2019-02-11T08:06:09.055Z,5.19
2019-02-11T08:08:38.478Z,5.22
2019-02-11T08:11:07.537Z,5.24
2019-02-11T08:13:36.552Z,5.27
2019-02-11T08:16:05.596Z,5.33
2019-02-11T08:18:34.610Z,5.42
2019-02-11T08:21:03.787Z,5.52
2019-02-11T08:23:32.796Z,5.53
2019-02-11T08:26:01.856Z,5.59
2019-02-11T08:28:31.674Z,5.58
2019-02-11T08:31:00.727Z,5.62
2019-02-11T08:33:30.533Z,5.50
2019-02-11T08:35:59.530Z,5.51
2019-02-11T08:38:28.540Z,5.42
2019-02-11T08:40:57.875Z,5.54
2019-02-11T08:43:26.859Z,5.72
2019-02-11T08:45:55.913Z,5.71
2019-02-11T08:48:24.922Z,5.75
2019-02-11T08:50:54.005Z,5.88
2019-02-11T08:53:22.954Z,5.91
2019-02-11T08:55:51.928Z,5.81
2019-02-11T08:58:20.994Z,5.94
2019-02-11T09:00:50.281Z,5.95
2019-02-11T09:03:19.332Z,6.04
2019-02-11T09:05:48.465Z,6.20
2019-02-11T09:08:17.872Z,6.19
2019-02-11T09:10:47.216Z,6.17
2019-02-11T09:13:16.561Z,6.37
2019-02-11T09:15:45.609Z,6.32
2019-02-11T09:18:14.617Z,6.21
2019-02-11T09:20:43.679Z,6.16
2019-02-11T09:23:12.941Z,6.15
2019-02-11T09:25:41.959Z,6.06
2019-02-11T09:28:11.013Z,6.24
2019-02-11T09:30:40.049Z,6.16
2019-02-11T09:33:09.100Z,6.09
2019-02-11T09:35:38.382Z,6.06
2019-02-11T09:38:07.421Z,6.09
2019-02-11T09:40:36.458Z,6.04
2019-02-11T09:43:05.454Z,5.94
2019-02-11T09:45:34.833Z,5.94
2019-02-11T09:48:03.846Z,5.97
2019-02-11T09:50:44.271Z,5.86
2019-02-11T09:53:13.320Z,5.90
2019-02-11T09:55:42.344Z,5.90
2019-02-11T09:58:11.409Z,5.84
2019-02-11T10:00:40.423Z,5.94
2019-02-11T10:03:09.495Z,6.23
2019-02-11T10:05:39.125Z,6.35
2019-02-11T10:08:08.143Z,6.20
2019-02-11T10:10:37.186Z,6.34
2019-02-11T10:13:06.243Z,6.48
2019-02-11T10:15:35.255Z,6.51
2019-02-11T10:18:04.289Z,6.51
2019-02-11T10:20:33.268Z,6.42
2019-02-11T10:23:02.743Z,6.38
2019-02-11T10:25:31.796Z,6.40
2019-02-11T10:28:03.796Z,6.46
2019-02-11T10:30:33.887Z,6.60
2019-02-11T10:33:02.826Z,6.43
2019-02-11T10:35:32.247Z,6.39
2019-02-11T10:38:01.256Z,6.63
2019-02-11T10:40:30.259Z,6.71
2019-02-11T10:42:59.585Z,6.83
2019-02-11T10:45:36.241Z,6.82
2019-02-11T10:47:59.374Z,6.99
2019-02-11T10:50:28.385Z,7.11
2019-02-11T10:52:57.470Z,7.02
2019-02-11T10:55:26.471Z,7.12
2019-02-11T10:57:55.499Z,7.12
2019-02-11T11:00:24.655Z,7.30
2019-02-11T11:02:53.837Z,7.19
2019-02-11T11:05:22.869Z,7.36
2019-02-11T11:07:51.907Z,7.20
2019-02-11T11:10:23.650Z,7.05
2019-02-11T11:12:52.686Z,7.00
2019-02-11T11:15:21.691Z,7.33
2019-02-11T11:17:50.731Z,7.62
2019-02-11T11:20:19.945Z,7.95
2019-02-11T11:22:49.095Z,7.84
2019-02-11T11:25:18.799Z,7.95
2019-02-11T11:27:47.817Z,8.07
2019-02-11T11:30:17.088Z,7.97
2019-02-11T11:32:46.541Z,8.19
2019-02-11T11:35:16.043Z,8.38
2019-02-11T11:37:45.125Z,8.42
2019-02-11T11:40:16.068Z,8.21
2019-02-11T11:42:45.001Z,7.54
2019-02-11T11:45:16.134Z,7.59
2019-02-11T11:47:45.188Z,7.55
2019-02-11T11:50:15.076Z,7.52
2019-02-11T11:52:44.219Z,7.42
2019-02-11T11:55:14.134Z,7.28
2019-02-11T11:57:43.210Z,7.25
2019-02-11T12:00:20.551Z,7.50
2019-02-11T12:03:00.733Z,7.56
2019-02-11T12:05:20.466Z,7.91
2019-02-11T12:07:49.481Z,7.90
2019-02-11T12:10:18.601Z,7.87
2019-02-11T12:12:48.036Z,7.82
2019-02-11T12:15:18.819Z,7.79
2019-02-11T12:17:48.342Z,7.87
2019-02-11T12:20:17.360Z,7.90
2019-02-11T12:22:46.418Z,7.75
2019-02-11T12:25:15.972Z,7.61
2019-02-11T12:27:44.997Z,7.69
2019-02-11T12:30:16.565Z,7.81
2019-02-11T12:32:45.611Z,7.72
2019-02-11T12:35:15.003Z,7.70
2019-02-11T12:37:44.079Z,7.57
2019-02-11T12:40:13.212Z,7.42
2019-02-11T12:42:42.445Z,7.50
2019-02-11T12:45:16.639Z,7.65
2019-02-11T12:47:45.675Z,7.30
2019-02-11T12:50:15.811Z,7.26
2019-02-11T12:52:44.848Z,7.37
2019-02-11T12:55:14.462Z,7.44
2019-02-11T12:57:43.526Z,7.45
2019-02-11T13:00:18.270Z,7.24
2019-02-11T13:02:47.853Z,7.28
2019-02-11T13:05:21.509Z,7.41
2019-02-11T13:07:47.617Z,7.34
2019-02-11T13:10:17.890Z,7.46
2019-02-11T13:12:46.992Z,7.17
2019-02-11T13:15:41.961Z,7.12
2019-02-11T13:17:47.151Z,7.14
2019-02-11T13:20:16.317Z,7.19
2019-02-11T13:22:45.312Z,7.14
2019-02-11T13:25:14.832Z,7.19
2019-02-11T13:27:43.893Z,7.24
2019-02-11T13:30:15.440Z,7.17
2019-02-11T13:32:44.443Z,7.16
2019-02-11T13:35:13.602Z,7.40
2019-02-11T13:37:42.838Z,7.19
2019-02-11T13:40:11.959Z,7.17
2019-02-11T13:42:40.997Z,7.21
2019-02-11T13:45:14.885Z,7.23
2019-02-11T13:47:53.595Z,7.05
2019-02-11T13:50:17.414Z,7.08
2019-02-11T13:52:46.768Z,7.06
2019-02-11T13:55:15.838Z,7.09
2019-02-11T13:57:44.872Z,7.12
2019-02-11T14:00:26.403Z,6.99
2019-02-11T14:02:56.587Z,7.10
2019-02-11T14:05:26.083Z,7.06
2019-02-11T14:07:55.583Z,7.11
2019-02-11T14:10:24.633Z,7.10
2019-02-11T14:12:53.645Z,7.09
2019-02-11T14:15:22.653Z,7.19
2019-02-11T14:18:09.284Z,7.09
2019-02-11T14:20:24.393Z,7.03
2019-02-11T14:22:53.423Z,6.93
2019-02-11T14:25:40.969Z,6.97
2019-02-11T14:27:53.449Z,6.99
2019-02-11T14:30:22.525Z,6.92
2019-02-11T14:32:51.658Z,6.91
2019-02-11T14:35:20.695Z,6.88
2019-02-11T14:37:49.940Z,6.82
2019-02-11T14:40:19.249Z,6.69
2019-02-11T14:42:48.350Z,6.76
2019-02-11T14:45:17.571Z,6.67
2019-02-11T14:47:46.576Z,6.79
2019-02-11T14:50:15.630Z,6.71
2019-02-11T14:52:44.705Z,6.53
2019-02-11T14:55:13.727Z,6.45
2019-02-11T14:57:42.803Z,6.42
2019-02-11T15:00:17.652Z,6.33
2019-02-11T15:02:46.733Z,6.31
2019-02-11T15:05:15.954Z,6.28
2019-02-11T15:07:45.285Z,6.13
2019-02-11T15:10:14.695Z,6.04
2019-02-11T15:12:43.767Z,5.96
2019-02-11T15:15:12.965Z,5.93
2019-02-11T15:17:42.346Z,5.88
2019-02-11T15:20:12.818Z,5.89
2019-02-11T15:22:41.823Z,5.80
2019-02-11T15:25:12.957Z,5.83
2019-02-11T15:27:42.257Z,5.80
2019-02-11T15:30:13.655Z,5.75
2019-02-11T15:32:42.712Z,5.70
2019-02-11T15:35:11.786Z,5.64
2019-02-11T15:37:40.802Z,5.63
2019-02-11T15:40:13.046Z,5.56
2019-02-11T15:42:42.047Z,5.43
2019-02-11T15:45:12.504Z,5.36
2019-02-11T15:47:41.520Z,5.38
2019-02-11T15:50:11.755Z,5.22
2019-02-11T15:52:41.201Z,5.21
2019-02-11T15:55:13.078Z,5.19
2019-02-11T15:57:42.092Z,5.07
2019-02-11T16:00:13.827Z,5.07
2019-02-11T16:02:42.865Z,5.08
2019-02-11T16:05:15.792Z,5.04
2019-02-11T16:07:42.662Z,5.03
2019-02-11T16:10:13.583Z,4.99
2019-02-11T16:12:42.606Z,4.97
2019-02-11T16:15:11.821Z,4.88
2019-02-11T16:17:40.882Z,4.83
2019-02-11T16:20:10.149Z,4.85
2019-02-11T16:22:39.177Z,4.83
2019-02-11T16:25:10.103Z,4.73
2019-02-11T16:27:39.108Z,4.67
2019-02-11T16:30:10.494Z,4.69
2019-02-11T16:32:39.809Z,4.64
2019-02-11T16:35:09.967Z,4.64
2019-02-11T16:37:39.334Z,4.59
2019-02-11T16:40:10.967Z,4.56
2019-02-11T16:42:39.936Z,4.55
2019-02-11T16:45:09.888Z,4.52
2019-02-11T16:47:38.932Z,4.51
2019-02-11T16:50:08.177Z,4.50
2019-02-11T16:52:37.241Z,4.49
2019-02-11T16:55:06.463Z,4.47
2019-02-11T16:57:35.512Z,4.46
2019-02-11T17:00:04.973Z,4.50
2019-02-11T17:02:34.017Z,4.46
2019-02-11T17:05:03.460Z,4.45
2019-02-11T17:07:32.556Z,4.40
2019-02-11T17:10:01.561Z,4.38
2019-02-11T17:12:30.615Z,4.39
2019-02-11T17:14:59.961Z,4.37
2019-02-11T17:17:29.008Z,4.37
2019-02-11T17:19:58.039Z,4.38
2019-02-11T17:22:27.088Z,4.37
2019-02-11T17:24:56.096Z,4.37
2019-02-11T17:27:25.069Z,4.38
2019-02-11T17:29:54.363Z,4.37
2019-02-11T17:32:23.378Z,4.41
2019-02-11T17:34:52.357Z,4.38
2019-02-11T17:37:21.373Z,4.37
2019-02-11T17:39:50.384Z,4.37
2019-02-11T17:42:19.446Z,4.37
2019-02-11T17:44:48.381Z,4.37
2019-02-11T17:47:17.436Z,4.39
2019-02-11T17:49:46.494Z,4.38
2019-02-11T17:52:15.795Z,4.38
2019-02-11T17:54:45.128Z,4.37
2019-02-11T17:57:14.192Z,4.35
2019-02-11T17:59:43.235Z,4.34
2019-02-11T18:02:14.661Z,4.34
2019-02-11T18:04:43.906Z,4.25
2019-02-11T18:07:12.985Z,4.22
2019-02-11T18:09:42.033Z,4.18
2019-02-11T18:12:11.086Z,4.15
2019-02-11T18:14:40.092Z,4.20
2019-02-11T18:17:09.079Z,4.24
2019-02-11T18:19:38.129Z,4.26
2019-02-11T18:22:07.165Z,4.19
2019-02-11T18:24:36.219Z,4.15
2019-02-11T18:27:05.235Z,4.14
2019-02-11T18:29:34.289Z,4.09
2019-02-11T18:32:03.345Z,4.06
2019-02-11T18:34:32.389Z,3.99
2019-02-11T18:37:01.437Z,3.95
2019-02-11T18:39:30.521Z,3.92
2019-02-11T18:41:59.520Z,3.84
2019-02-11T18:44:28.622Z,3.88
2019-02-11T18:46:57.628Z,3.85
2019-02-11T18:49:34.202Z,3.83
2019-02-11T18:51:57.441Z,3.80
2019-02-11T18:54:26.389Z,3.78
2019-02-11T18:56:55.467Z,3.78
2019-02-11T18:59:25.051Z,3.73
2019-02-11T19:01:54.155Z,3.69
2019-02-11T19:04:23.189Z,3.73
2019-02-11T19:06:52.232Z,3.74
2019-02-11T19:09:21.624Z,3.74
2019-02-11T19:11:50.676Z,3.66
2019-02-11T19:14:19.617Z,3.70
2019-02-11T19:16:48.771Z,3.62
2019-02-11T19:19:17.793Z,3.63
2019-02-11T19:21:46.965Z,3.57
2019-02-11T19:24:15.953Z,3.58
2019-02-11T19:26:44.894Z,3.58
2019-02-11T19:29:13.949Z,3.54
2019-02-11T19:31:42.982Z,3.53
2019-02-11T19:34:12.051Z,3.53
2019-02-11T19:36:41.056Z,3.47
2019-02-11T19:39:11.288Z,3.49
2019-02-11T19:41:40.340Z,3.49
2019-02-11T19:44:09.279Z,3.41
2019-02-11T19:46:38.329Z,3.45
2019-02-11T19:49:07.410Z,3.45
2019-02-11T19:51:36.441Z,3.45
2019-02-11T19:54:05.440Z,3.44
2019-02-11T19:56:34.492Z,3.44
2019-02-11T19:59:03.536Z,3.41
2019-02-11T20:01:32.610Z,3.48
2019-02-11T20:04:07.296Z,3.44
2019-02-11T20:06:33.187Z,3.48
2019-02-11T20:09:02.355Z,3.44
2019-02-11T20:11:31.370Z,3.45
2019-02-11T20:14:00.815Z,3.43
2019-02-11T20:16:29.772Z,3.42
2019-02-11T20:18:58.833Z,3.43
2019-02-11T20:21:27.911Z,3.39
2019-02-11T20:23:56.968Z,3.40
2019-02-11T20:26:25.959Z,3.37
2019-02-11T20:28:55.266Z,3.35
2019-02-11T20:31:24.287Z,3.35
2019-02-11T20:33:53.330Z,3.37
2019-02-11T20:36:22.401Z,3.35
2019-02-11T20:38:51.433Z,3.33
2019-02-11T20:41:20.447Z,3.34
2019-02-11T20:43:49.536Z,3.35
2019-02-11T20:46:18.546Z,3.34
2019-02-11T20:48:47.590Z,3.33
2019-02-11T20:51:16.714Z,3.35
2019-02-11T20:53:47.435Z,3.32
2019-02-11T20:56:16.537Z,3.34
2019-02-11T20:58:45.578Z,3.34
2019-02-11T21:01:14.627Z,3.36
2019-02-11T21:03:43.674Z,3.38
2019-02-11T21:06:12.690Z,3.41
2019-02-11T21:08:42.010Z,3.45
2019-02-11T21:11:12.556Z,3.53
2019-02-11T21:13:41.767Z,3.54
2019-02-11T21:16:10.792Z,3.55
2019-02-11T21:18:39.840Z,3.54
2019-02-11T21:21:08.879Z,3.56
2019-02-11T21:23:37.941Z,3.53
2019-02-11T21:26:08.678Z,3.56
2019-02-11T21:28:38.442Z,3.51
2019-02-11T21:31:07.470Z,3.49
2019-02-11T21:33:36.506Z,3.49
2019-02-11T21:36:05.551Z,3.51
2019-02-11T21:38:34.557Z,3.54
2019-02-11T21:41:05.483Z,3.50
2019-02-11T21:43:34.502Z,3.53
2019-02-11T21:46:03.565Z,3.50
2019-02-11T21:48:32.574Z,3.47
2019-02-11T21:51:01.660Z,3.53
2019-02-11T21:53:30.708Z,3.54
2019-02-11T21:56:00.776Z,3.55
2019-02-11T21:58:29.850Z,3.62
2019-02-11T22:01:02.451Z,3.68
2019-02-11T22:03:30.415Z,3.75
2019-02-11T22:05:59.410Z,3.80
2019-02-11T22:08:28.463Z,3.76
2019-02-11T22:10:57.529Z,3.73
2019-02-11T22:13:26.544Z,3.69
2019-02-11T22:15:55.602Z,3.60
2019-02-11T22:18:24.630Z,3.62
2019-02-11T22:20:54.006Z,3.53
2019-02-11T22:23:23.081Z,3.53
2019-02-11T22:25:52.137Z,3.51
2019-02-11T22:28:21.186Z,3.55
2019-02-11T22:30:50.231Z,3.58
2019-02-11T22:33:19.326Z,3.61
2019-02-11T22:35:48.339Z,3.73
2019-02-11T22:38:17.420Z,3.68
2019-02-11T22:40:46.470Z,3.53
2019-02-11T22:43:15.485Z,3.46
2019-02-11T22:45:44.522Z,3.42
2019-02-11T22:48:13.589Z,3.36
2019-02-11T22:50:43.426Z,3.38
2019-02-11T22:53:12.514Z,3.42
2019-02-11T22:55:41.582Z,3.42
2019-02-11T22:58:10.593Z,3.37
2019-02-11T23:00:46.000Z,3.34
2019-02-11T23:03:15.350Z,3.30
2019-02-11T23:05:44.777Z,3.33
2019-02-11T23:08:14.008Z,3.34
2019-02-11T23:10:43.079Z,3.39
2019-02-11T23:13:12.104Z,3.30
2019-02-11T23:15:41.110Z,3.35
2019-02-11T23:18:10.158Z,3.37
2019-02-11T23:20:39.215Z,3.41
2019-02-11T23:23:08.265Z,3.48
2019-02-11T23:25:37.281Z,3.47
2019-02-11T23:28:06.335Z,3.45
2019-02-11T23:30:35.432Z,3.47
2019-02-11T23:33:04.468Z,3.45
2019-02-11T23:35:33.491Z,3.43
2019-02-11T23:38:02.576Z,3.43
2019-02-11T23:40:31.585Z,3.46
2019-02-11T23:43:00.605Z,3.54
2019-02-11T23:45:29.672Z,3.55
2019-02-11T23:47:58.991Z,3.57
2019-02-11T23:50:28.053Z,3.61
2019-02-11T23:52:57.103Z,3.53
2019-02-11T23:55:26.160Z,3.48
2019-02-11T23:57:55.177Z,3.50
